sensor_id;sensor_type;location;lat;lon;timestamp;P1;durP1;ratioP1;P2;durP2;ratioP2
11681;SDS011;5897;42.640;23.310;2023-02-01T00:00:15;3.13;;;2.90;;
11681;SDS011;5897;42.640;23.310;2023-02-01T00:02:42;3.90;;;2.90;;
11681;SDS011;5897;42.640;23.310;2023-02-01T00:05:09;4.23;;;2.70;;
11681;SDS011;5897;42.640;23.310;2023-02-01T00:07:36;2.43;;;1.90;;
11681;SDS011;5897;42.640;23.310;2023-02-01T00:10:03;2.90;;;2.60;;
11681;SDS011;5897;42.640;23.310;2023-02-01T00:12:32;3.83;;;3.13;;
11681;SDS011;5897;42.640;23.310;2023-02-01T00:14:59;3.20;;;2.90;;
11681;SDS011;5897;42.640;23.310;2023-02-01T00:17:27;4.30;;;3.03;;
11681;SDS011;5897;42.640;23.310;2023-02-01T00:19:54;2.70;;;2.50;;
11681;SDS011;5897;42.640;23.310;2023-02-01T00:22:20;3.17;;;2.60;;
11681;SDS011;5897;42.640;23.310;2023-02-01T00:24:47;3.27;;;3.00;;
11681;SDS011;5897;42.640;23.310;2023-02-01T00:27:14;2.70;;;2.50;;
11681;SDS011;5897;42.640;23.310;2023-02-01T00:29:43;4.40;;;2.90;;
11681;SDS011;5897;42.640;23.310;2023-02-01T00:32:10;3.40;;;2.90;;
11681;SDS011;5897;42.640;23.310;2023-02-01T00:34:38;4.43;;;2.80;;
11681;SDS011;5897;42.640;23.310;2023-02-01T00:37:05;3.67;;;2.93;;
11681;SDS011;5897;42.640;23.310;2023-02-01T00:39:32;3.10;;;2.80;;
11681;SDS011;5897;42.640;23.310;2023-02-01T00:41:59;3.80;;;2.60;;
11681;SDS011;5897;42.640;23.310;2023-02-01T00:44:27;3.77;;;2.80;;
11681;SDS011;5897;42.640;23.310;2023-02-01T00:46:58;2.90;;;2.60;;
11681;SDS011;5897;42.640;23.310;2023-02-01T00:49:25;2.70;;;2.40;;
11681;SDS011;5897;42.640;23.310;2023-02-01T00:51:53;2.40;;;2.20;;
11681;SDS011;5897;42.640;23.310;2023-02-01T00:54:20;2.63;;;2.43;;
11681;SDS011;5897;42.640;23.310;2023-02-01T00:56:46;4.57;;;2.50;;
11681;SDS011;5897;42.640;23.310;2023-02-01T00:59:13;2.73;;;2.53;;
11681;SDS011;5897;42.640;23.310;2023-02-01T01:01:40;5.27;;;2.63;;
11681;SDS011;5897;42.640;23.310;2023-02-01T01:04:07;2.60;;;2.40;;
11681;SDS011;5897;42.640;23.310;2023-02-01T01:06:33;2.50;;;2.30;;
11681;SDS011;5897;42.640;23.310;2023-02-01T01:09:02;2.30;;;2.10;;
11681;SDS011;5897;42.640;23.310;2023-02-01T01:11:31;3.67;;;2.30;;
11681;SDS011;5897;42.640;23.310;2023-02-01T01:13:59;2.90;;;2.40;;
11681;SDS011;5897;42.640;23.310;2023-02-01T01:16:27;4.03;;;2.17;;
11681;SDS011;5897;42.640;23.310;2023-02-01T01:18:57;2.53;;;2.13;;
11681;SDS011;5897;42.640;23.310;2023-02-01T01:21:24;2.87;;;2.20;;
11681;SDS011;5897;42.640;23.310;2023-02-01T01:23:52;2.60;;;2.20;;
11681;SDS011;5897;42.640;23.310;2023-02-01T01:26:21;2.40;;;2.20;;
11681;SDS011;5897;42.640;23.310;2023-02-01T01:28:49;3.33;;;2.23;;
11681;SDS011;5897;42.640;23.310;2023-02-01T01:31:16;2.53;;;2.33;;
11681;SDS011;5897;42.640;23.310;2023-02-01T01:33:43;2.83;;;1.93;;
11681;SDS011;5897;42.640;23.310;2023-02-01T01:36:10;3.50;;;2.33;;
11681;SDS011;5897;42.640;23.310;2023-02-01T01:38:38;2.83;;;2.10;;
11681;SDS011;5897;42.640;23.310;2023-02-01T01:41:06;2.30;;;1.90;;
11681;SDS011;5897;42.640;23.310;2023-02-01T01:43:51;2.80;;;2.30;;
11681;SDS011;5897;42.640;23.310;2023-02-01T01:46:20;3.00;;;2.07;;
11681;SDS011;5897;42.640;23.310;2023-02-01T01:48:49;3.37;;;2.17;;
11681;SDS011;5897;42.640;23.310;2023-02-01T01:51:20;2.83;;;2.07;;
11681;SDS011;5897;42.640;23.310;2023-02-01T01:53:58;4.33;;;2.60;;
11681;SDS011;5897;42.640;23.310;2023-02-01T01:56:27;2.37;;;2.10;;
11681;SDS011;5897;42.640;23.310;2023-02-01T01:58:58;2.50;;;2.13;;
11681;SDS011;5897;42.640;23.310;2023-02-01T02:01:25;2.50;;;2.13;;
11681;SDS011;5897;42.640;23.310;2023-02-01T02:03:53;2.30;;;2.10;;
11681;SDS011;5897;42.640;23.310;2023-02-01T02:06:27;2.33;;;2.00;;
11681;SDS011;5897;42.640;23.310;2023-02-01T02:09:00;2.33;;;2.03;;
11681;SDS011;5897;42.640;23.310;2023-02-01T02:11:27;2.97;;;2.20;;
11681;SDS011;5897;42.640;23.310;2023-02-01T02:13:54;3.10;;;2.17;;
11681;SDS011;5897;42.640;23.310;2023-02-01T02:16:34;2.13;;;2.03;;
11681;SDS011;5897;42.640;23.310;2023-02-01T02:25:27;2.40;;;2.00;;
11681;SDS011;5897;42.640;23.310;2023-02-01T02:28:13;2.37;;;1.90;;
11681;SDS011;5897;42.640;23.310;2023-02-01T02:31:13;2.63;;;2.00;;
11681;SDS011;5897;42.640;23.310;2023-02-01T02:34:07;2.73;;;1.90;;
11681;SDS011;5897;42.640;23.310;2023-02-01T02:36:44;4.37;;;2.27;;
11681;SDS011;5897;42.640;23.310;2023-02-01T02:39:21;2.80;;;2.10;;
11681;SDS011;5897;42.640;23.310;2023-02-01T02:41:58;1.93;;;1.67;;
11681;SDS011;5897;42.640;23.310;2023-02-01T02:44:47;1.53;;;1.43;;
11681;SDS011;5897;42.640;23.310;2023-02-01T02:47:39;2.60;;;1.70;;
11681;SDS011;5897;42.640;23.310;2023-02-01T02:50:16;1.80;;;1.60;;
11681;SDS011;5897;42.640;23.310;2023-02-01T02:53:08;2.33;;;1.70;;
11681;SDS011;5897;42.640;23.310;2023-02-01T02:55:56;2.87;;;1.80;;
11681;SDS011;5897;42.640;23.310;2023-02-01T02:58:42;3.53;;;1.90;;
11681;SDS011;5897;42.640;23.310;2023-02-01T03:01:28;2.00;;;1.80;;
11681;SDS011;5897;42.640;23.310;2023-02-01T03:04:13;1.73;;;1.60;;
11681;SDS011;5897;42.640;23.310;2023-02-01T03:06:44;2.57;;;1.73;;
11681;SDS011;5897;42.640;23.310;2023-02-01T03:09:13;1.63;;;1.53;;
11681;SDS011;5897;42.640;23.310;2023-02-01T03:11:45;1.47;;;1.37;;
11681;SDS011;5897;42.640;23.310;2023-02-01T03:14:32;2.23;;;1.60;;
11681;SDS011;5897;42.640;23.310;2023-02-01T03:17:03;2.03;;;1.70;;
11681;SDS011;5897;42.640;23.310;2023-02-01T03:19:35;1.90;;;1.73;;
11681;SDS011;5897;42.640;23.310;2023-02-01T03:22:10;3.53;;;1.80;;
11681;SDS011;5897;42.640;23.310;2023-02-01T03:24:41;2.57;;;1.43;;
11681;SDS011;5897;42.640;23.310;2023-02-01T03:27:11;2.17;;;1.70;;
11681;SDS011;5897;42.640;23.310;2023-02-01T03:29:41;2.63;;;1.70;;
11681;SDS011;5897;42.640;23.310;2023-02-01T03:32:12;1.93;;;1.50;;
11681;SDS011;5897;42.640;23.310;2023-02-01T03:34:39;2.00;;;1.70;;
11681;SDS011;5897;42.640;23.310;2023-02-01T03:37:06;2.17;;;1.33;;
11681;SDS011;5897;42.640;23.310;2023-02-01T03:39:38;2.90;;;1.60;;
11681;SDS011;5897;42.640;23.310;2023-02-01T03:42:11;2.07;;;1.40;;
11681;SDS011;5897;42.640;23.310;2023-02-01T03:44:42;1.77;;;1.40;;
11681;SDS011;5897;42.640;23.310;2023-02-01T03:47:16;1.30;;;1.20;;
11681;SDS011;5897;42.640;23.310;2023-02-01T03:49:47;2.40;;;1.40;;
11681;SDS011;5897;42.640;23.310;2023-02-01T03:52:22;2.50;;;1.30;;
11681;SDS011;5897;42.640;23.310;2023-02-01T03:54:51;1.33;;;1.23;;
11681;SDS011;5897;42.640;23.310;2023-02-01T03:57:20;1.53;;;1.40;;
11681;SDS011;5897;42.640;23.310;2023-02-01T03:59:51;1.60;;;1.50;;
11681;SDS011;5897;42.640;23.310;2023-02-01T04:02:18;1.60;;;1.30;;
11681;SDS011;5897;42.640;23.310;2023-02-01T04:04:45;1.57;;;1.37;;
11681;SDS011;5897;42.640;23.310;2023-02-01T04:07:11;1.70;;;1.60;;
11681;SDS011;5897;42.640;23.310;2023-02-01T04:09:39;2.73;;;1.73;;
11681;SDS011;5897;42.640;23.310;2023-02-01T04:12:07;2.57;;;1.70;;
11681;SDS011;5897;42.640;23.310;2023-02-01T04:14:33;1.53;;;1.43;;
11681;SDS011;5897;42.640;23.310;2023-02-01T04:17:00;1.67;;;1.57;;
11681;SDS011;5897;42.640;23.310;2023-02-01T04:19:27;2.03;;;1.70;;
11681;SDS011;5897;42.640;23.310;2023-02-01T04:21:54;1.93;;;1.77;;
11681;SDS011;5897;42.640;23.310;2023-02-01T04:24:20;2.70;;;1.60;;
11681;SDS011;5897;42.640;23.310;2023-02-01T04:26:48;1.90;;;1.80;;
11681;SDS011;5897;42.640;23.310;2023-02-01T04:29:15;2.10;;;1.90;;
11681;SDS011;5897;42.640;23.310;2023-02-01T04:31:42;3.67;;;2.00;;
11681;SDS011;5897;42.640;23.310;2023-02-01T04:34:09;2.63;;;1.97;;
11681;SDS011;5897;42.640;23.310;2023-02-01T04:36:35;2.53;;;2.30;;
11681;SDS011;5897;42.640;23.310;2023-02-01T04:39:02;2.40;;;2.10;;
11681;SDS011;5897;42.640;23.310;2023-02-01T04:41:29;4.83;;;2.60;;
11681;SDS011;5897;42.640;23.310;2023-02-01T04:43:57;4.17;;;2.40;;
11681;SDS011;5897;42.640;23.310;2023-02-01T04:46:24;2.20;;;2.10;;
11681;SDS011;5897;42.640;23.310;2023-02-01T04:48:50;5.50;;;2.43;;
11681;SDS011;5897;42.640;23.310;2023-02-01T04:51:17;4.00;;;2.37;;
11681;SDS011;5897;42.640;23.310;2023-02-01T04:53:44;4.20;;;2.40;;
11681;SDS011;5897;42.640;23.310;2023-02-01T04:56:11;3.00;;;2.30;;
11681;SDS011;5897;42.640;23.310;2023-02-01T04:58:38;2.53;;;2.33;;
11681;SDS011;5897;42.640;23.310;2023-02-01T05:01:06;2.57;;;2.30;;
11681;SDS011;5897;42.640;23.310;2023-02-01T05:03:33;3.43;;;2.33;;
11681;SDS011;5897;42.640;23.310;2023-02-01T05:06:01;3.83;;;2.70;;
11681;SDS011;5897;42.640;23.310;2023-02-01T05:08:29;3.77;;;2.73;;
11681;SDS011;5897;42.640;23.310;2023-02-01T05:10:55;3.83;;;2.63;;
11681;SDS011;5897;42.640;23.310;2023-02-01T05:13:23;2.90;;;2.17;;
11681;SDS011;5897;42.640;23.310;2023-02-01T05:16:09;3.67;;;2.43;;
11681;SDS011;5897;42.640;23.310;2023-02-01T05:18:36;2.23;;;2.10;;
11681;SDS011;5897;42.640;23.310;2023-02-01T05:21:03;2.73;;;2.40;;
11681;SDS011;5897;42.640;23.310;2023-02-01T05:23:30;3.87;;;2.53;;
11681;SDS011;5897;42.640;23.310;2023-02-01T05:26:00;4.13;;;2.40;;
11681;SDS011;5897;42.640;23.310;2023-02-01T05:28:28;4.90;;;3.00;;
11681;SDS011;5897;42.640;23.310;2023-02-01T05:30:55;3.03;;;2.20;;
11681;SDS011;5897;42.640;23.310;2023-02-01T05:33:23;4.10;;;2.70;;
11681;SDS011;5897;42.640;23.310;2023-02-01T05:35:50;4.60;;;2.73;;
11681;SDS011;5897;42.640;23.310;2023-02-01T05:38:16;4.07;;;2.80;;
11681;SDS011;5897;42.640;23.310;2023-02-01T05:40:43;2.77;;;2.33;;
11681;SDS011;5897;42.640;23.310;2023-02-01T05:43:14;3.90;;;2.70;;
11681;SDS011;5897;42.640;23.310;2023-02-01T05:45:41;3.60;;;2.30;;
11681;SDS011;5897;42.640;23.310;2023-02-01T05:48:08;4.13;;;2.40;;
11681;SDS011;5897;42.640;23.310;2023-02-01T05:50:36;2.57;;;2.23;;
11681;SDS011;5897;42.640;23.310;2023-02-01T05:53:03;3.53;;;1.93;;
11681;SDS011;5897;42.640;23.310;2023-02-01T05:55:29;4.17;;;1.80;;
11681;SDS011;5897;42.640;23.310;2023-02-01T05:57:56;4.60;;;1.90;;
11681;SDS011;5897;42.640;23.310;2023-02-01T06:00:23;2.80;;;2.20;;
11681;SDS011;5897;42.640;23.310;2023-02-01T06:02:50;3.97;;;1.83;;
11681;SDS011;5897;42.640;23.310;2023-02-01T06:05:17;2.33;;;2.10;;
11681;SDS011;5897;42.640;23.310;2023-02-01T06:07:45;3.33;;;1.80;;
11681;SDS011;5897;42.640;23.310;2023-02-01T06:10:12;2.93;;;1.70;;
11681;SDS011;5897;42.640;23.310;2023-02-01T06:12:39;3.80;;;1.60;;
11681;SDS011;5897;42.640;23.310;2023-02-01T06:15:06;4.07;;;1.70;;
11681;SDS011;5897;42.640;23.310;2023-02-01T06:17:34;4.33;;;1.97;;
11681;SDS011;5897;42.640;23.310;2023-02-01T06:20:00;2.27;;;1.63;;
11681;SDS011;5897;42.640;23.310;2023-02-01T06:22:28;3.87;;;1.70;;
11681;SDS011;5897;42.640;23.310;2023-02-01T06:24:56;2.23;;;1.70;;
11681;SDS011;5897;42.640;23.310;2023-02-01T06:27:23;3.83;;;1.60;;
11681;SDS011;5897;42.640;23.310;2023-02-01T06:29:50;3.47;;;1.70;;
11681;SDS011;5897;42.640;23.310;2023-02-01T06:32:17;2.63;;;1.60;;
11681;SDS011;5897;42.640;23.310;2023-02-01T06:34:44;4.80;;;1.50;;
11681;SDS011;5897;42.640;23.310;2023-02-01T06:37:10;3.57;;;1.60;;
11681;SDS011;5897;42.640;23.310;2023-02-01T06:39:37;3.97;;;1.50;;
11681;SDS011;5897;42.640;23.310;2023-02-01T06:42:05;3.27;;;1.47;;
11681;SDS011;5897;42.640;23.310;2023-02-01T06:44:32;1.10;;;1.00;;
11681;SDS011;5897;42.640;23.310;2023-02-01T06:46:59;2.07;;;1.47;;
11681;SDS011;5897;42.640;23.310;2023-02-01T06:49:26;3.93;;;1.50;;
11681;SDS011;5897;42.640;23.310;2023-02-01T06:51:53;1.93;;;1.40;;
11681;SDS011;5897;42.640;23.310;2023-02-01T06:54:19;3.07;;;1.30;;
11681;SDS011;5897;42.640;23.310;2023-02-01T06:56:46;2.87;;;1.70;;
11681;SDS011;5897;42.640;23.310;2023-02-01T06:59:14;2.27;;;1.20;;
11681;SDS011;5897;42.640;23.310;2023-02-01T07:01:41;4.33;;;1.23;;
11681;SDS011;5897;42.640;23.310;2023-02-01T07:04:08;1.70;;;1.30;;
11681;SDS011;5897;42.640;23.310;2023-02-01T07:06:36;1.87;;;1.37;;
11681;SDS011;5897;42.640;23.310;2023-02-01T07:09:03;2.10;;;1.40;;
11681;SDS011;5897;42.640;23.310;2023-02-01T07:11:30;2.77;;;1.67;;
11681;SDS011;5897;42.640;23.310;2023-02-01T07:13:57;2.77;;;1.30;;
11681;SDS011;5897;42.640;23.310;2023-02-01T07:16:25;2.97;;;1.40;;
11681;SDS011;5897;42.640;23.310;2023-02-01T07:18:52;2.93;;;1.77;;
11681;SDS011;5897;42.640;23.310;2023-02-01T07:21:19;3.57;;;1.40;;
11681;SDS011;5897;42.640;23.310;2023-02-01T07:23:46;2.13;;;1.50;;
11681;SDS011;5897;42.640;23.310;2023-02-01T07:26:13;1.67;;;1.50;;
11681;SDS011;5897;42.640;23.310;2023-02-01T07:28:41;2.27;;;1.60;;
11681;SDS011;5897;42.640;23.310;2023-02-01T07:31:08;1.30;;;1.20;;
11681;SDS011;5897;42.640;23.310;2023-02-01T07:33:37;2.67;;;1.10;;
11681;SDS011;5897;42.640;23.310;2023-02-01T07:36:05;3.00;;;1.50;;
11681;SDS011;5897;42.640;23.310;2023-02-01T07:38:32;2.43;;;1.37;;
11681;SDS011;5897;42.640;23.310;2023-02-01T07:41:02;2.10;;;1.20;;
11681;SDS011;5897;42.640;23.310;2023-02-01T07:43:30;1.50;;;1.40;;
11681;SDS011;5897;42.640;23.310;2023-02-01T07:45:58;2.27;;;1.50;;
11681;SDS011;5897;42.640;23.310;2023-02-01T07:48:26;2.77;;;1.43;;
11681;SDS011;5897;42.640;23.310;2023-02-01T07:50:58;2.87;;;1.47;;
11681;SDS011;5897;42.640;23.310;2023-02-01T07:53:25;3.17;;;1.30;;
11681;SDS011;5897;42.640;23.310;2023-02-01T07:55:52;2.63;;;1.30;;
11681;SDS011;5897;42.640;23.310;2023-02-01T07:58:21;1.13;;;1.10;;
11681;SDS011;5897;42.640;23.310;2023-02-01T08:00:48;2.17;;;1.03;;
11681;SDS011;5897;42.640;23.310;2023-02-01T08:03:32;3.30;;;1.50;;
11681;SDS011;5897;42.640;23.310;2023-02-01T08:06:00;2.80;;;1.60;;
11681;SDS011;5897;42.640;23.310;2023-02-01T08:08:27;2.27;;;1.10;;
11681;SDS011;5897;42.640;23.310;2023-02-01T08:10:56;1.40;;;1.20;;
11681;SDS011;5897;42.640;23.310;2023-02-01T08:13:23;2.40;;;1.27;;
11681;SDS011;5897;42.640;23.310;2023-02-01T08:15:50;1.20;;;1.10;;
11681;SDS011;5897;42.640;23.310;2023-02-01T08:18:17;5.40;;;1.20;;
11681;SDS011;5897;42.640;23.310;2023-02-01T08:20:45;2.50;;;1.87;;
11681;SDS011;5897;42.640;23.310;2023-02-01T08:23:14;1.70;;;1.30;;
11681;SDS011;5897;42.640;23.310;2023-02-01T08:25:40;2.77;;;1.47;;
11681;SDS011;5897;42.640;23.310;2023-02-01T08:28:07;3.20;;;1.53;;
11681;SDS011;5897;42.640;23.310;2023-02-01T08:30:35;1.97;;;1.33;;
11681;SDS011;5897;42.640;23.310;2023-02-01T08:33:03;2.30;;;1.30;;
11681;SDS011;5897;42.640;23.310;2023-02-01T08:35:31;1.60;;;1.50;;
11681;SDS011;5897;42.640;23.310;2023-02-01T08:37:57;3.37;;;1.57;;
11681;SDS011;5897;42.640;23.310;2023-02-01T08:40:27;2.33;;;1.80;;
11681;SDS011;5897;42.640;23.310;2023-02-01T08:42:54;3.57;;;1.73;;
11681;SDS011;5897;42.640;23.310;2023-02-01T08:45:22;5.03;;;1.67;;
11681;SDS011;5897;42.640;23.310;2023-02-01T08:47:50;1.77;;;1.60;;
11681;SDS011;5897;42.640;23.310;2023-02-01T08:50:17;1.70;;;1.10;;
11681;SDS011;5897;42.640;23.310;2023-02-01T08:52:45;3.00;;;1.37;;
11681;SDS011;5897;42.640;23.310;2023-02-01T08:55:12;1.80;;;1.43;;
11681;SDS011;5897;42.640;23.310;2023-02-01T08:57:42;3.03;;;1.50;;
11681;SDS011;5897;42.640;23.310;2023-02-01T09:00:10;3.73;;;1.63;;
11681;SDS011;5897;42.640;23.310;2023-02-01T09:02:40;2.53;;;1.20;;
11681;SDS011;5897;42.640;23.310;2023-02-01T09:05:07;4.13;;;1.50;;
11681;SDS011;5897;42.640;23.310;2023-02-01T09:07:34;2.70;;;1.40;;
11681;SDS011;5897;42.640;23.310;2023-02-01T09:10:01;4.93;;;1.40;;
11681;SDS011;5897;42.640;23.310;2023-02-01T09:12:29;1.20;;;1.05;;
11681;SDS011;5897;42.640;23.310;2023-02-01T09:14:57;2.00;;;1.37;;
11681;SDS011;5897;42.640;23.310;2023-02-01T09:17:24;2.90;;;1.30;;
11681;SDS011;5897;42.640;23.310;2023-02-01T09:19:51;1.40;;;1.30;;
11681;SDS011;5897;42.640;23.310;2023-02-01T09:22:18;3.83;;;1.40;;
11681;SDS011;5897;42.640;23.310;2023-02-01T09:24:45;1.30;;;1.20;;
11681;SDS011;5897;42.640;23.310;2023-02-01T09:27:12;1.83;;;1.15;;
11681;SDS011;5897;42.640;23.310;2023-02-01T09:29:39;1.90;;;1.27;;
11681;SDS011;5897;42.640;23.310;2023-02-01T09:32:07;1.90;;;1.50;;
11681;SDS011;5897;42.640;23.310;2023-02-01T09:34:34;3.40;;;1.47;;
11681;SDS011;5897;42.640;23.310;2023-02-01T09:37:01;2.37;;;1.50;;
11681;SDS011;5897;42.640;23.310;2023-02-01T09:39:28;3.00;;;1.50;;
11681;SDS011;5897;42.640;23.310;2023-02-01T09:41:58;3.88;;;1.58;;
11681;SDS011;5897;42.640;23.310;2023-02-01T09:44:47;3.33;;;1.10;;
11681;SDS011;5897;42.640;23.310;2023-02-01T09:47:36;2.30;;;1.70;;
11681;SDS011;5897;42.640;23.310;2023-02-01T09:50:09;2.25;;;1.45;;
11681;SDS011;5897;42.640;23.310;2023-02-01T09:52:42;3.43;;;1.47;;
11681;SDS011;5897;42.640;23.310;2023-02-01T09:55:16;3.92;;;1.42;;
11681;SDS011;5897;42.640;23.310;2023-02-01T09:57:49;2.90;;;1.02;;
11681;SDS011;5897;42.640;23.310;2023-02-01T10:00:22;3.63;;;1.33;;
11681;SDS011;5897;42.640;23.310;2023-02-01T10:02:54;1.57;;;1.20;;
11681;SDS011;5897;42.640;23.310;2023-02-01T10:05:25;1.48;;;1.27;;
11681;SDS011;5897;42.640;23.310;2023-02-01T10:08:08;2.60;;;1.33;;
11681;SDS011;5897;42.640;23.310;2023-02-01T10:10:43;1.57;;;1.47;;
11681;SDS011;5897;42.640;23.310;2023-02-01T10:13:23;2.97;;;1.43;;
11681;SDS011;5897;42.640;23.310;2023-02-01T10:16:12;2.50;;;1.52;;
11681;SDS011;5897;42.640;23.310;2023-02-01T10:18:50;2.10;;;1.50;;
11681;SDS011;5897;42.640;23.310;2023-02-01T10:21:27;2.85;;;1.40;;
11681;SDS011;5897;42.640;23.310;2023-02-01T10:26:59;4.32;;;1.40;;
11681;SDS011;5897;42.640;23.310;2023-02-01T10:29:30;4.82;;;1.48;;
11681;SDS011;5897;42.640;23.310;2023-02-01T10:32:03;2.20;;;1.20;;
11681;SDS011;5897;42.640;23.310;2023-02-01T10:34:40;2.97;;;1.40;;
11681;SDS011;5897;42.640;23.310;2023-02-01T10:37:13;2.40;;;1.38;;
11681;SDS011;5897;42.640;23.310;2023-02-01T10:39:49;2.65;;;1.50;;
11681;SDS011;5897;42.640;23.310;2023-02-01T10:42:20;2.10;;;1.40;;
11681;SDS011;5897;42.640;23.310;2023-02-01T10:44:50;2.22;;;1.30;;
11681;SDS011;5897;42.640;23.310;2023-02-01T10:47:17;1.23;;;1.10;;
11681;SDS011;5897;42.640;23.310;2023-02-01T10:49:47;1.67;;;1.38;;
11681;SDS011;5897;42.640;23.310;2023-02-01T10:52:23;1.67;;;1.50;;
11681;SDS011;5897;42.640;23.310;2023-02-01T10:54:58;2.17;;;1.50;;
11681;SDS011;5897;42.640;23.310;2023-02-01T10:57:58;2.58;;;1.30;;
11681;SDS011;5897;42.640;23.310;2023-02-01T11:00:26;1.45;;;1.30;;
11681;SDS011;5897;42.640;23.310;2023-02-01T11:02:54;1.42;;;1.27;;
11681;SDS011;5897;42.640;23.310;2023-02-01T11:05:22;3.08;;;1.40;;
11681;SDS011;5897;42.640;23.310;2023-02-01T11:07:52;1.48;;;1.30;;
11681;SDS011;5897;42.640;23.310;2023-02-01T11:10:34;1.88;;;1.40;;
11681;SDS011;5897;42.640;23.310;2023-02-01T11:13:03;1.58;;;1.30;;
11681;SDS011;5897;42.640;23.310;2023-02-01T11:15:31;1.95;;;1.30;;
11681;SDS011;5897;42.640;23.310;2023-02-01T11:17:57;3.03;;;1.50;;
11681;SDS011;5897;42.640;23.310;2023-02-01T11:20:42;2.42;;;1.50;;
11681;SDS011;5897;42.640;23.310;2023-02-01T11:23:14;2.15;;;1.48;;
11681;SDS011;5897;42.640;23.310;2023-02-01T11:25:47;2.25;;;1.35;;
11681;SDS011;5897;42.640;23.310;2023-02-01T11:28:15;1.48;;;1.30;;
11681;SDS011;5897;42.640;23.310;2023-02-01T11:30:44;1.05;;;1.00;;
11681;SDS011;5897;42.640;23.310;2023-02-01T11:33:13;1.38;;;1.05;;
11681;SDS011;5897;42.640;23.310;2023-02-01T11:35:44;1.42;;;0.93;;
11681;SDS011;5897;42.640;23.310;2023-02-01T11:38:18;1.60;;;1.23;;
11681;SDS011;5897;42.640;23.310;2023-02-01T11:40:48;1.55;;;1.13;;
11681;SDS011;5897;42.640;23.310;2023-02-01T11:43:17;1.83;;;1.05;;
11681;SDS011;5897;42.640;23.310;2023-02-01T11:45:56;0.93;;;0.85;;
11681;SDS011;5897;42.640;23.310;2023-02-01T11:48:26;1.48;;;0.90;;
11681;SDS011;5897;42.640;23.310;2023-02-01T11:51:08;0.95;;;0.90;;
11681;SDS011;5897;42.640;23.310;2023-02-01T11:53:56;1.33;;;1.10;;
11681;SDS011;5897;42.640;23.310;2023-02-01T11:56:35;0.77;;;0.77;;
11681;SDS011;5897;42.640;23.310;2023-02-01T11:59:15;1.27;;;1.10;;
11681;SDS011;5897;42.640;23.310;2023-02-01T12:01:58;1.20;;;1.10;;
11681;SDS011;5897;42.640;23.310;2023-02-01T12:04:55;2.03;;;1.15;;
11681;SDS011;5897;42.640;23.310;2023-02-01T12:07:39;1.20;;;1.10;;
11681;SDS011;5897;42.640;23.310;2023-02-01T12:10:24;0.90;;;0.90;;
11681;SDS011;5897;42.640;23.310;2023-02-01T12:13:09;2.28;;;1.25;;
11681;SDS011;5897;42.640;23.310;2023-02-01T12:15:50;1.00;;;1.00;;
11681;SDS011;5897;42.640;23.310;2023-02-01T12:18:38;1.95;;;1.10;;
11681;SDS011;5897;42.640;23.310;2023-02-01T12:21:22;1.30;;;0.90;;
11681;SDS011;5897;42.640;23.310;2023-02-01T12:24:02;1.40;;;0.90;;
11681;SDS011;5897;42.640;23.310;2023-02-01T12:26:53;1.10;;;1.00;;
11681;SDS011;5897;42.640;23.310;2023-02-01T12:29:41;1.50;;;1.05;;
11681;SDS011;5897;42.640;23.310;2023-02-01T12:32:25;2.97;;;1.00;;
11681;SDS011;5897;42.640;23.310;2023-02-01T12:35:22;2.25;;;1.20;;
11681;SDS011;5897;42.640;23.310;2023-02-01T12:38:10;2.15;;;1.17;;
11681;SDS011;5897;42.640;23.310;2023-02-01T12:40:51;1.67;;;1.10;;
11681;SDS011;5897;42.640;23.310;2023-02-01T12:43:44;1.52;;;1.25;;
11681;SDS011;5897;42.640;23.310;2023-02-01T12:46:16;2.08;;;1.17;;
11681;SDS011;5897;42.640;23.310;2023-02-01T12:48:51;1.63;;;1.25;;
11681;SDS011;5897;42.640;23.310;2023-02-01T12:51:23;1.77;;;1.10;;
11681;SDS011;5897;42.640;23.310;2023-02-01T12:53:54;1.20;;;1.10;;
11681;SDS011;5897;42.640;23.310;2023-02-01T12:56:29;1.35;;;1.17;;
11681;SDS011;5897;42.640;23.310;2023-02-01T12:59:01;1.63;;;1.23;;
11681;SDS011;5897;42.640;23.310;2023-02-01T13:01:32;1.45;;;1.15;;
11681;SDS011;5897;42.640;23.310;2023-02-01T13:04:03;2.53;;;1.35;;
11681;SDS011;5897;42.640;23.310;2023-02-01T13:06:37;1.92;;;1.20;;
11681;SDS011;5897;42.640;23.310;2023-02-01T13:09:09;1.60;;;1.35;;
11681;SDS011;5897;42.640;23.310;2023-02-01T13:11:47;1.67;;;1.00;;
11681;SDS011;5897;42.640;23.310;2023-02-01T13:14:19;1.60;;;1.20;;
11681;SDS011;5897;42.640;23.310;2023-02-01T13:16:51;1.48;;;1.20;;
11681;SDS011;5897;42.640;23.310;2023-02-01T13:19:24;2.28;;;1.23;;
11681;SDS011;5897;42.640;23.310;2023-02-01T13:21:56;1.58;;;1.30;;
11681;SDS011;5897;42.640;23.310;2023-02-01T13:24:29;1.52;;;1.30;;
11681;SDS011;5897;42.640;23.310;2023-02-01T13:27:01;2.35;;;1.10;;
11681;SDS011;5897;42.640;23.310;2023-02-01T13:29:28;1.15;;;1.05;;
11681;SDS011;5897;42.640;23.310;2023-02-01T13:32:01;1.17;;;1.08;;
11681;SDS011;5897;42.640;23.310;2023-02-01T13:34:53;1.13;;;1.00;;
11681;SDS011;5897;42.640;23.310;2023-02-01T13:37:59;2.03;;;0.90;;
11681;SDS011;5897;42.640;23.310;2023-02-01T13:40:37;1.45;;;1.30;;
11681;SDS011;5897;42.640;23.310;2023-02-01T13:43:10;1.10;;;1.10;;
11681;SDS011;5897;42.640;23.310;2023-02-01T13:45:44;1.30;;;1.20;;
11681;SDS011;5897;42.640;23.310;2023-02-01T13:48:24;1.95;;;1.30;;
11681;SDS011;5897;42.640;23.310;2023-02-01T13:50:56;1.88;;;1.48;;
11681;SDS011;5897;42.640;23.310;2023-02-01T13:53:27;1.42;;;1.10;;
11681;SDS011;5897;42.640;23.310;2023-02-01T13:55:58;1.60;;;1.10;;
11681;SDS011;5897;42.640;23.310;2023-02-01T13:58:32;3.05;;;1.02;;
11681;SDS011;5897;42.640;23.310;2023-02-01T14:04:01;1.98;;;1.10;;
11681;SDS011;5897;42.640;23.310;2023-02-01T14:06:39;2.42;;;1.40;;
11681;SDS011;5897;42.640;23.310;2023-02-01T14:09:11;2.33;;;1.60;;
11681;SDS011;5897;42.640;23.310;2023-02-01T14:11:45;1.38;;;1.25;;
11681;SDS011;5897;42.640;23.310;2023-02-01T14:23:20;2.05;;;1.30;;
11681;SDS011;5897;42.640;23.310;2023-02-01T14:26:00;1.50;;;1.30;;
11681;SDS011;5897;42.640;23.310;2023-02-01T14:28:32;1.25;;;1.10;;
11681;SDS011;5897;42.640;23.310;2023-02-01T14:31:13;2.35;;;1.50;;
11681;SDS011;5897;42.640;23.310;2023-02-01T14:33:44;1.73;;;1.20;;
11681;SDS011;5897;42.640;23.310;2023-02-01T14:36:12;1.10;;;1.00;;
11681;SDS011;5897;42.640;23.310;2023-02-01T14:38:46;1.77;;;1.40;;
11681;SDS011;5897;42.640;23.310;2023-02-01T14:41:24;1.08;;;0.98;;
11681;SDS011;5897;42.640;23.310;2023-02-01T14:47:08;1.42;;;1.17;;
11681;SDS011;5897;42.640;23.310;2023-02-01T14:49:52;1.57;;;1.17;;
11681;SDS011;5897;42.640;23.310;2023-02-01T14:52:23;2.35;;;1.50;;
11681;SDS011;5897;42.640;23.310;2023-02-01T14:54:59;2.38;;;1.60;;
11681;SDS011;5897;42.640;23.310;2023-02-01T14:57:30;4.97;;;1.67;;
11681;SDS011;5897;42.640;23.310;2023-02-01T15:00:03;1.25;;;1.15;;
11681;SDS011;5897;42.640;23.310;2023-02-01T15:02:36;2.38;;;1.50;;
11681;SDS011;5897;42.640;23.310;2023-02-01T15:05:26;3.28;;;1.50;;
11681;SDS011;5897;42.640;23.310;2023-02-01T15:07:58;1.38;;;1.27;;
11681;SDS011;5897;42.640;23.310;2023-02-01T15:10:30;2.92;;;1.88;;
11681;SDS011;5897;42.640;23.310;2023-02-01T15:12:59;2.53;;;1.55;;
11681;SDS011;5897;42.640;23.310;2023-02-01T15:15:26;1.85;;;1.10;;
11681;SDS011;5897;42.640;23.310;2023-02-01T15:17:55;1.45;;;1.10;;
11681;SDS011;5897;42.640;23.310;2023-02-01T15:20:24;1.30;;;1.05;;
11681;SDS011;5897;42.640;23.310;2023-02-01T15:22:53;1.30;;;0.90;;
11681;SDS011;5897;42.640;23.310;2023-02-01T15:25:23;1.35;;;1.10;;
11681;SDS011;5897;42.640;23.310;2023-02-01T15:27:51;0.88;;;0.88;;
11681;SDS011;5897;42.640;23.310;2023-02-01T15:30:19;1.17;;;1.00;;
11681;SDS011;5897;42.640;23.310;2023-02-01T15:32:47;1.13;;;1.02;;
11681;SDS011;5897;42.640;23.310;2023-02-01T15:38:25;1.33;;;1.17;;
11681;SDS011;5897;42.640;23.310;2023-02-01T15:40:59;1.35;;;1.20;;